sensor_id;sensor_type;location;lat;lon;timestamp;pressure;altitude;pressure_sealevel;temperature;humidity
70684;BME280;58263;48.146;11.440;2023-05-23T00:00:40;95386.44;;;17.85;65.64
70684;BME280;58263;48.146;11.440;2023-05-23T00:03:05;95375.09;;;17.83;65.57
70684;BME280;58263;48.146;11.440;2023-05-23T00:05:31;95376.50;;;17.76;65.37
70684;BME280;58263;48.146;11.440;2023-05-23T00:07:56;95375.41;;;17.77;65.16
70684;BME280;58263;48.146;11.440;2023-05-23T00:10:21;95372.41;;;17.78;65.49
70684;BME280;58263;48.146;11.440;2023-05-23T00:12:46;95378.88;;;17.82;65.12
70684;BME280;58263;48.146;11.440;2023-05-23T00:15:12;95379.97;;;17.81;65.00
70684;BME280;58263;48.146;11.440;2023-05-23T00:17:38;95375.69;;;17.75;65.64
70684;BME280;58263;48.146;11.440;2023-05-23T00:20:05;95380.31;;;17.74;65.03
70684;BME280;58263;48.146;11.440;2023-05-23T00:22:34;95379.56;;;17.69;65.93
70684;BME280;58263;48.146;11.440;2023-05-23T00:24:59;95383.88;;;17.70;65.31
70684;BME280;58263;48.146;11.440;2023-05-23T00:27:26;95381.19;;;17.70;65.36
70684;BME280;58263;48.146;11.440;2023-05-23T00:29:51;95383.56;;;17.77;64.76
70684;BME280;58263;48.146;11.440;2023-05-23T00:32:16;95376.97;;;17.83;65.07
70684;BME280;58263;48.146;11.440;2023-05-23T00:34:42;95374.56;;;17.81;64.63
70684;BME280;58263;48.146;11.440;2023-05-23T00:37:08;95372.88;;;17.85;64.50
70684;BME280;58263;48.146;11.440;2023-05-23T00:39:33;95379.69;;;17.83;64.56
70684;BME280;58263;48.146;11.440;2023-05-23T00:42:03;95369.13;;;17.81;64.32
70684;BME280;58263;48.146;11.440;2023-05-23T00:44:29;95376.25;;;17.72;64.15
70684;BME280;58263;48.146;11.440;2023-05-23T00:46:55;95379.19;;;17.81;64.39
70684;BME280;58263;48.146;11.440;2023-05-23T00:49:21;95369.66;;;17.83;64.70
70684;BME280;58263;48.146;11.440;2023-05-23T00:51:47;95374.25;;;17.83;64.04
70684;BME280;58263;48.146;11.440;2023-05-23T00:54:14;95382.16;;;17.79;64.28
70684;BME280;58263;48.146;11.440;2023-05-23T00:56:42;95379.25;;;17.70;64.54
70684;BME280;58263;48.146;11.440;2023-05-23T00:59:08;95368.88;;;17.78;63.76
70684;BME280;58263;48.146;11.440;2023-05-23T01:01:33;95370.25;;;17.75;64.32
70684;BME280;58263;48.146;11.440;2023-05-23T01:04:02;95377.34;;;17.71;64.20
70684;BME280;58263;48.146;11.440;2023-05-23T01:06:28;95380.88;;;17.71;63.78
70684;BME280;58263;48.146;11.440;2023-05-23T01:08:54;95378.47;;;17.70;64.28
70684;BME280;58263;48.146;11.440;2023-05-23T01:11:28;95378.47;;;17.70;64.49
70684;BME280;58263;48.146;11.440;2023-05-23T01:14:00;95380.63;;;17.68;64.42
70684;BME280;58263;48.146;11.440;2023-05-23T01:16:48;95391.16;;;17.74;64.16
70684;BME280;58263;48.146;11.440;2023-05-23T01:22:17;95397.00;;;17.57;64.32
70684;BME280;58263;48.146;11.440;2023-05-23T01:30:18;95394.00;;;17.59;64.13
70684;BME280;58263;48.146;11.440;2023-05-23T01:32:47;95394.34;;;17.52;64.54
70684;BME280;58263;48.146;11.440;2023-05-23T01:35:13;95393.78;;;17.50;65.02
70684;BME280;58263;48.146;11.440;2023-05-23T01:37:40;95390.28;;;17.50;64.78
70684;BME280;58263;48.146;11.440;2023-05-23T01:40:06;95390.56;;;17.48;64.72
70684;BME280;58263;48.146;11.440;2023-05-23T01:42:31;95397.06;;;17.47;64.86
70684;BME280;58263;48.146;11.440;2023-05-23T01:44:57;95403.59;;;17.46;64.47
70684;BME280;58263;48.146;11.440;2023-05-23T01:47:23;95402.06;;;17.35;65.90
70684;BME280;58263;48.146;11.440;2023-05-23T01:49:49;95406.06;;;17.43;65.18
70684;BME280;58263;48.146;11.440;2023-05-23T01:52:16;95403.69;;;17.36;65.03
70684;BME280;58263;48.146;11.440;2023-05-23T01:54:42;95403.72;;;17.31;65.06
70684;BME280;58263;48.146;11.440;2023-05-23T01:57:08;95409.13;;;17.31;65.75
70684;BME280;58263;48.146;11.440;2023-05-23T01:59:34;95409.69;;;17.28;65.28
70684;BME280;58263;48.146;11.440;2023-05-23T02:02:01;95405.94;;;17.23;65.73
70684;BME280;58263;48.146;11.440;2023-05-23T02:04:29;95407.53;;;17.24;66.35
70684;BME280;58263;48.146;11.440;2023-05-23T02:06:55;95416.22;;;17.21;66.44
70684;BME280;58263;48.146;11.440;2023-05-23T02:09:20;95408.94;;;17.17;65.83
70684;BME280;58263;48.146;11.440;2023-05-23T02:11:45;95412.75;;;17.16;66.20
70684;BME280;58263;48.146;11.440;2023-05-23T02:14:11;95415.72;;;17.19;66.05
70684;BME280;58263;48.146;11.440;2023-05-23T02:16:37;95411.94;;;17.15;66.23
70684;BME280;58263;48.146;11.440;2023-05-23T02:19:03;95412.47;;;17.12;66.25
70684;BME280;58263;48.146;11.440;2023-05-23T02:21:28;95417.09;;;17.12;66.65
70684;BME280;58263;48.146;11.440;2023-05-23T02:23:53;95424.47;;;17.06;66.71
70684;BME280;58263;48.146;11.440;2023-05-23T02:26:19;95419.84;;;17.06;66.23
70684;BME280;58263;48.146;11.440;2023-05-23T02:28:44;95421.22;;;17.04;66.94
70684;BME280;58263;48.146;11.440;2023-05-23T02:31:09;95424.75;;;16.99;66.52
70684;BME280;58263;48.146;11.440;2023-05-23T02:33:35;95426.13;;;16.97;66.97
70684;BME280;58263;48.146;11.440;2023-05-23T02:36:00;95419.63;;;16.98;67.38
70684;BME280;58263;48.146;11.440;2023-05-23T02:38:26;95430.75;;;16.96;66.96
70684;BME280;58263;48.146;11.440;2023-05-23T02:40:51;95430.19;;;16.94;66.95
70684;BME280;58263;48.146;11.440;2023-05-23T02:43:18;95424.78;;;16.94;67.37
70684;BME280;58263;48.146;11.440;2023-05-23T02:45:43;95430.78;;;16.91;67.50
70684;BME280;58263;48.146;11.440;2023-05-23T02:48:09;95434.53;;;16.85;67.46
70684;BME280;58263;48.146;11.440;2023-05-23T02:50:36;95434.31;;;16.81;67.42
70684;BME280;58263;48.146;11.440;2023-05-23T02:53:01;95428.13;;;16.70;67.77
70684;BME280;58263;48.146;11.440;2023-05-23T02:55:26;95428.13;;;16.70;68.05
70684;BME280;58263;48.146;11.440;2023-05-23T02:57:52;95435.72;;;16.63;68.86
70684;BME280;58263;48.146;11.440;2023-05-23T03:00:18;95433.00;;;16.63;68.67
70684;BME280;58263;48.146;11.440;2023-05-23T03:02:44;95431.94;;;16.59;68.77
70684;BME280;58263;48.146;11.440;2023-05-23T03:05:09;95429.78;;;16.61;68.66
70684;BME280;58263;48.146;11.440;2023-05-23T03:07:34;95433.84;;;16.53;69.38
70684;BME280;58263;48.146;11.440;2023-05-23T03:10:00;95445.25;;;16.50;69.08
70684;BME280;58263;48.146;11.440;2023-05-23T03:12:28;95432.28;;;16.47;69.34
70684;BME280;58263;48.146;11.440;2023-05-23T03:14:54;95433.34;;;16.46;69.80
70684;BME280;58263;48.146;11.440;2023-05-23T03:17:19;95436.03;;;16.51;69.67
70684;BME280;58263;48.146;11.440;2023-05-23T03:19:45;95437.41;;;16.49;69.34
70684;BME280;58263;48.146;11.440;2023-05-23T03:22:10;95436.56;;;16.48;69.42
70684;BME280;58263;48.146;11.440;2023-05-23T03:24:35;95443.09;;;16.42;70.42
70684;BME280;58263;48.146;11.440;2023-05-23T03:27:01;95438.50;;;16.43;69.80
70684;BME280;58263;48.146;11.440;2023-05-23T03:29:26;95444.75;;;16.33;70.63
70684;BME280;58263;48.146;11.440;2023-05-23T03:31:51;95446.66;;;16.37;70.38
70684;BME280;58263;48.146;11.440;2023-05-23T03:34:16;95447.16;;;16.39;70.48
70684;BME280;58263;48.146;11.440;2023-05-23T03:36:42;95453.94;;;16.42;70.00
70684;BME280;58263;48.146;11.440;2023-05-23T03:39:07;95449.59;;;16.36;70.75
70684;BME280;58263;48.146;11.440;2023-05-23T03:41:32;95449.09;;;16.39;70.75
70684;BME280;58263;48.146;11.440;2023-05-23T03:43:58;95441.47;;;16.46;70.07
70684;BME280;58263;48.146;11.440;2023-05-23T03:46:25;95453.38;;;16.45;70.26
70684;BME280;58263;48.146;11.440;2023-05-23T03:48:50;95443.94;;;16.37;70.88
70684;BME280;58263;48.146;11.440;2023-05-23T03:51:16;95450.72;;;16.35;70.75
70684;BME280;58263;48.146;11.440;2023-05-23T03:53:41;95441.75;;;16.39;70.80
70684;BME280;58263;48.146;11.440;2023-05-23T03:56:06;95452.88;;;16.38;70.55
70684;BME280;58263;48.146;11.440;2023-05-23T03:58:32;95458.28;;;16.28;71.43
70684;BME280;58263;48.146;11.440;2023-05-23T04:00:57;95452.59;;;16.34;71.25
70684;BME280;58263;48.146;11.440;2023-05-23T04:03:22;95453.94;;;16.32;71.00
70684;BME280;58263;48.146;11.440;2023-05-23T04:05:48;95453.41;;;16.35;71.27
70684;BME280;58263;48.146;11.440;2023-05-23T04:08:14;95452.31;;;16.36;71.06
70684;BME280;58263;48.146;11.440;2023-05-23T04:10:39;95459.34;;;16.42;71.35
70684;BME280;58263;48.146;11.440;2023-05-23T04:13:05;95462.56;;;16.44;71.10
70684;BME280;58263;48.146;11.440;2023-05-23T04:15:31;95452.81;;;16.48;70.44
70684;BME280;58263;48.146;11.440;2023-05-23T04:17:58;95458.78;;;16.50;71.31
70684;BME280;58263;48.146;11.440;2023-05-23T04:20:23;95466.34;;;16.53;71.41
70684;BME280;58263;48.146;11.440;2023-05-23T04:22:49;95471.75;;;16.59;71.15
70684;BME280;58263;48.146;11.440;2023-05-23T04:25:14;95472.31;;;16.55;70.94
70684;BME280;58263;48.146;11.440;2023-05-23T04:27:42;95474.75;;;16.52;71.36
70684;BME280;58263;48.146;11.440;2023-05-23T04:30:08;95473.66;;;16.58;71.16
70684;BME280;58263;48.146;11.440;2023-05-23T04:32:34;95476.09;;;16.60;70.84
70684;BME280;58263;48.146;11.440;2023-05-23T04:35:00;95476.88;;;16.65;70.44
70684;BME280;58263;48.146;11.440;2023-05-23T04:37:26;95480.97;;;16.58;71.51
70684;BME280;58263;48.146;11.440;2023-05-23T04:39:52;95472.53;;;16.64;71.06
70684;BME280;58263;48.146;11.440;2023-05-23T04:42:17;95474.41;;;16.74;70.41
70684;BME280;58263;48.146;11.440;2023-05-23T04:44:48;95473.59;;;16.79;70.61
70684;BME280;58263;48.146;11.440;2023-05-23T04:47:14;95474.97;;;16.76;70.96
70684;BME280;58263;48.146;11.440;2023-05-23T04:49:39;95475.47;;;16.83;71.06
70684;BME280;58263;48.146;11.440;2023-05-23T04:52:06;95484.69;;;16.93;70.68
70684;BME280;58263;48.146;11.440;2023-05-23T04:54:31;95490.06;;;16.98;70.67
70684;BME280;58263;48.146;11.440;2023-05-23T04:56:57;95481.94;;;17.03;70.41
70684;BME280;58263;48.146;11.440;2023-05-23T04:59:22;95490.81;;;17.14;70.29
70684;BME280;58263;48.146;11.440;2023-05-23T05:01:48;95495.09;;;17.30;69.87
70684;BME280;58263;48.146;11.440;2023-05-23T05:04:13;95494.19;;;17.45;69.56
70684;BME280;58263;48.146;11.440;2023-05-23T05:06:39;95490.34;;;17.51;69.12
70684;BME280;58263;48.146;11.440;2023-05-23T05:09:05;95494.91;;;17.56;69.27
70684;BME280;58263;48.146;11.440;2023-05-23T05:11:30;95488.09;;;17.58;68.88
70684;BME280;58263;48.146;11.440;2023-05-23T05:13:55;95495.13;;;17.65;69.05
70684;BME280;58263;48.146;11.440;2023-05-23T05:16:21;95498.13;;;17.63;69.05
70684;BME280;58263;48.146;11.440;2023-05-23T05:18:46;95496.69;;;17.76;68.99
70684;BME280;58263;48.146;11.440;2023-05-23T05:21:11;95487.72;;;17.81;68.70
70684;BME280;58263;48.146;11.440;2023-05-23T05:23:37;95492.50;;;17.94;68.12
70684;BME280;58263;48.146;11.440;2023-05-23T05:26:02;95491.69;;;17.94;68.43
70684;BME280;58263;48.146;11.440;2023-05-23T05:28:29;95480.81;;;17.99;68.18
70684;BME280;58263;48.146;11.440;2023-05-23T05:30:54;95493.22;;;18.05;68.08
70684;BME280;58263;48.146;11.440;2023-05-23T05:33:20;95486.97;;;18.10;67.35
70684;BME280;58263;48.146;11.440;2023-05-23T05:35:49;95488.78;;;18.19;67.06
70684;BME280;58263;48.146;11.440;2023-05-23T05:38:18;95492.19;;;18.30;67.01
70684;BME280;58263;48.146;11.440;2023-05-23T05:40:43;95489.16;;;18.37;66.57
70684;BME280;58263;48.146;11.440;2023-05-23T05:43:09;95491.59;;;18.38;67.00
70684;BME280;58263;48.146;11.440;2023-05-23T05:45:35;95509.09;;;18.51;67.14
70684;BME280;58263;48.146;11.440;2023-05-23T05:48:00;95511.25;;;18.54;66.77
70684;BME280;58263;48.146;11.440;2023-05-23T05:50:26;95516.91;;;18.58;67.24
70684;BME280;58263;48.146;11.440;2023-05-23T05:52:51;95513.84;;;18.65;67.12
70684;BME280;58263;48.146;11.440;2023-05-23T05:55:16;95516.81;;;18.68;66.49
70684;BME280;58263;48.146;11.440;2023-05-23T05:57:42;95512.53;;;18.86;66.31
70684;BME280;58263;48.146;11.440;2023-05-23T06:00:10;95515.94;;;19.02;65.98
70684;BME280;58263;48.146;11.440;2023-05-23T06:02:38;95516.44;;;19.04;65.78
70684;BME280;58263;48.146;11.440;2023-05-23T06:05:05;95509.66;;;19.02;65.38
70684;BME280;58263;48.146;11.440;2023-05-23T06:07:32;95513.31;;;19.16;65.23
70684;BME280;58263;48.146;11.440;2023-05-23T06:09:58;95519.00;;;19.20;65.32
70684;BME280;58263;48.146;11.440;2023-05-23T06:12:23;95522.22;;;19.22;65.04
70684;BME280;58263;48.146;11.440;2023-05-23T06:14:48;95524.03;;;19.07;65.50
70684;BME280;58263;48.146;11.440;2023-05-23T06:17:14;95518.41;;;18.99;66.03
70684;BME280;58263;48.146;11.440;2023-05-23T06:19:39;95516.63;;;19.13;65.94
70684;BME280;58263;48.146;11.440;2023-05-23T06:22:04;95515.78;;;19.37;65.13
70684;BME280;58263;48.146;11.440;2023-05-23T06:24:30;95513.44;;;19.49;64.15
70684;BME280;58263;48.146;11.440;2023-05-23T06:26:55;95511.31;;;19.65;64.62
70684;BME280;58263;48.146;11.440;2023-05-23T06:29:20;95518.31;;;19.90;64.27
70684;BME280;58263;48.146;11.440;2023-05-23T06:31:46;95521.31;;;20.08;63.95
70684;BME280;58263;48.146;11.440;2023-05-23T06:34:11;95533.00;;;20.27;63.28
70684;BME280;58263;48.146;11.440;2023-05-23T06:36:36;95525.53;;;20.33;62.64
70684;BME280;58263;48.146;11.440;2023-05-23T06:39:01;95534.34;;;20.44;62.63
70684;BME280;58263;48.146;11.440;2023-05-23T06:41:27;95533.84;;;20.56;62.43
70684;BME280;58263;48.146;11.440;2023-05-23T06:43:52;95531.50;;;20.68;61.69
70684;BME280;58263;48.146;11.440;2023-05-23T06:46:17;95532.78;;;20.71;61.50
70684;BME280;58263;48.146;11.440;2023-05-23T06:48:43;95533.72;;;20.80;61.08
70684;BME280;58263;48.146;11.440;2023-05-23T06:51:08;95530.41;;;21.11;60.50
70684;BME280;58263;48.146;11.440;2023-05-23T06:53:34;95534.94;;;21.30;59.74
70684;BME280;58263;48.146;11.440;2023-05-23T06:55:59;95539.59;;;21.43;59.58
70684;BME280;58263;48.146;11.440;2023-05-23T06:58:25;95528.25;;;21.64;59.55
70684;BME280;58263;48.146;11.440;2023-05-23T07:00:51;95529.41;;;21.85;58.30
70684;BME280;58263;48.146;11.440;2023-05-23T07:03:16;95526.78;;;21.94;57.66
70684;BME280;58263;48.146;11.440;2023-05-23T07:05:41;95534.22;;;22.02;57.83
70684;BME280;58263;48.146;11.440;2023-05-23T07:08:07;95530.94;;;21.91;57.30
70684;BME280;58263;48.146;11.440;2023-05-23T07:10:34;95527.81;;;21.84;58.06
70684;BME280;58263;48.146;11.440;2023-05-23T07:13:00;95537.44;;;22.04;57.88
70684;BME280;58263;48.146;11.440;2023-05-23T07:15:25;95541.00;;;22.27;57.30
70684;BME280;58263;48.146;11.440;2023-05-23T07:17:50;95545.38;;;22.51;56.42
70684;BME280;58263;48.146;11.440;2023-05-23T07:20:16;95546.19;;;22.83;55.28
70684;BME280;58263;48.146;11.440;2023-05-23T07:22:41;95544.75;;;22.54;55.60
70684;BME280;58263;48.146;11.440;2023-05-23T07:25:07;95538.28;;;22.50;55.36
70684;BME280;58263;48.146;11.440;2023-05-23T07:27:33;95541.88;;;22.59;55.43
70684;BME280;58263;48.146;11.440;2023-05-23T07:29:58;95541.50;;;22.52;54.89
70684;BME280;58263;48.146;11.440;2023-05-23T07:32:24;95550.28;;;22.40;55.69
70684;BME280;58263;48.146;11.440;2023-05-23T07:34:49;95544.94;;;22.35;55.21
70684;BME280;58263;48.146;11.440;2023-05-23T07:37:14;95545.47;;;22.23;56.22
70684;BME280;58263;48.146;11.440;2023-05-23T07:39:40;95547.72;;;22.21;56.28
70684;BME280;58263;48.146;11.440;2023-05-23T07:42:06;95543.16;;;21.94;57.05
70684;BME280;58263;48.146;11.440;2023-05-23T07:44:31;95544.91;;;21.76;57.16
70684;BME280;58263;48.146;11.440;2023-05-23T07:46:56;95553.50;;;21.83;57.37
70684;BME280;58263;48.146;11.440;2023-05-23T07:49:22;95557.59;;;21.58;57.83
70684;BME280;58263;48.146;11.440;2023-05-23T07:51:47;95556.28;;;21.55;57.68
70684;BME280;58263;48.146;11.440;2023-05-23T07:54:12;95550.72;;;21.60;58.29
70684;BME280;58263;48.146;11.440;2023-05-23T07:56:37;95552.03;;;21.49;58.59
70684;BME280;58263;48.146;11.440;2023-05-23T07:59:03;95562.88;;;21.54;58.16
70684;BME280;58263;48.146;11.440;2023-05-23T08:01:29;95559.38;;;21.49;58.11
70684;BME280;58263;48.146;11.440;2023-05-23T08:03:54;95557.28;;;21.59;58.23
70684;BME280;58263;48.146;11.440;2023-05-23T08:06:19;95560.22;;;21.49;57.90
70684;BME280;58263;48.146;11.440;2023-05-23T08:08:45;95567.41;;;21.31;58.28
70684;BME280;58263;48.146;11.440;2023-05-23T08:11:10;95557.38;;;21.40;58.28
70684;BME280;58263;48.146;11.440;2023-05-23T08:13:35;95569.94;;;21.69;56.68
70684;BME280;58263;48.146;11.440;2023-05-23T08:16:01;95566.53;;;21.86;56.40
70684;BME280;58263;48.146;11.440;2023-05-23T08:18:26;95571.09;;;21.77;57.38
70684;BME280;58263;48.146;11.440;2023-05-23T08:20:53;95568.66;;;21.89;56.56
70684;BME280;58263;48.146;11.440;2023-05-23T08:23:18;95572.28;;;21.99;56.99
70684;BME280;58263;48.146;11.440;2023-05-23T08:25:43;95569.78;;;21.88;55.99
70684;BME280;58263;48.146;11.440;2023-05-23T08:28:09;95571.47;;;21.98;56.11
70684;BME280;58263;48.146;11.440;2023-05-23T08:30:34;95574.78;;;22.09;56.51
70684;BME280;58263;48.146;11.440;2023-05-23T08:33:00;95565.84;;;22.17;56.43
70684;BME280;58263;48.146;11.440;2023-05-23T08:35:28;95568.56;;;22.17;56.10
70684;BME280;58263;48.146;11.440;2023-05-23T08:37:57;95569.16;;;22.14;56.22
70684;BME280;58263;48.146;11.440;2023-05-23T08:40:26;95571.84;;;22.05;56.16
70684;BME280;58263;48.146;11.440;2023-05-23T08:42:53;95581.44;;;21.80;57.01
70684;BME280;58263;48.146;11.440;2023-05-23T08:45:18;95583.25;;;21.71;57.37
70684;BME280;58263;48.146;11.440;2023-05-23T08:47:45;95584.69;;;21.54;58.17
70684;BME280;58263;48.146;11.440;2023-05-23T08:50:13;95584.28;;;21.61;57.05
70684;BME280;58263;48.146;11.440;2023-05-23T08:52:57;95582.03;;;21.77;56.74
70684;BME280;58263;48.146;11.440;2023-05-23T08:55:24;95586.59;;;21.68;57.20
70684;BME280;58263;48.146;11.440;2023-05-23T08:57:58;95580.63;;;21.66;56.83
70684;BME280;58263;48.146;11.440;2023-05-23T09:00:25;95583.19;;;21.99;56.28
70684;BME280;58263;48.146;11.440;2023-05-23T09:02:51;95579.72;;;22.07;55.76
70684;BME280;58263;48.146;11.440;2023-05-23T09:05:16;95589.53;;;22.08;56.68
70684;BME280;58263;48.146;11.440;2023-05-23T09:07:44;95586.19;;;22.11;56.39
70684;BME280;58263;48.146;11.440;2023-05-23T09:10:12;95586.56;;;22.18;55.58
70684;BME280;58263;48.146;11.440;2023-05-23T09:12:38;95593.34;;;21.84;57.30
70684;BME280;58263;48.146;11.440;2023-05-23T09:15:05;95594.22;;;22.07;56.01
70684;BME280;58263;48.146;11.440;2023-05-23T09:17:31;95592.53;;;21.84;56.42
70684;BME280;58263;48.146;11.440;2023-05-23T09:19:58;95598.50;;;21.72;57.62
70684;BME280;58263;48.146;11.440;2023-05-23T09:22:24;95592.88;;;21.54;57.67
70684;BME280;58263;48.146;11.440;2023-05-23T09:24:54;95595.19;;;21.75;56.78
70684;BME280;58263;48.146;11.440;2023-05-23T09:27:19;95599.31;;;21.86;56.68
70684;BME280;58263;48.146;11.440;2023-05-23T09:29:45;95592.06;;;22.04;56.64
70684;BME280;58263;48.146;11.440;2023-05-23T09:32:16;95599.84;;;22.11;55.54
70684;BME280;58263;48.146;11.440;2023-05-23T09:34:53;95603.00;;;22.04;55.92
70684;BME280;58263;48.146;11.440;2023-05-23T09:37:20;95606.03;;;22.03;57.42
70684;BME280;58263;48.146;11.440;2023-05-23T09:39:49;95611.06;;;21.73;57.34
70684;BME280;58263;48.146;11.440;2023-05-23T09:42:24;95595.91;;;21.67;57.74
70684;BME280;58263;48.146;11.440;2023-05-23T09:44:50;95606.91;;;21.75;57.05
70684;BME280;58263;48.146;11.440;2023-05-23T09:47:15;95602.09;;;21.58;57.06
70684;BME280;58263;48.146;11.440;2023-05-23T09:49:44;95612.16;;;21.44;58.37
70684;BME280;58263;48.146;11.440;2023-05-23T09:52:10;95604.78;;;21.44;58.39
70684;BME280;58263;48.146;11.440;2023-05-23T09:54:36;95608.72;;;21.52;58.78
70684;BME280;58263;48.146;11.440;2023-05-23T09:57:02;95602.19;;;21.53;58.01
70684;BME280;58263;48.146;11.440;2023-05-23T09:59:31;95596.88;;;21.43;58.24
70684;BME280;58263;48.146;11.440;2023-05-23T10:02:01;95607.41;;;21.36;58.80
70684;BME280;58263;48.146;11.440;2023-05-23T10:04:33;95600.41;;;21.30;58.73
70684;BME280;58263;48.146;11.440;2023-05-23T10:07:19;95599.22;;;21.08;58.94
70684;BME280;58263;48.146;11.440;2023-05-23T10:09:54;95595.97;;;21.06;58.92
70684;BME280;58263;48.146;11.440;2023-05-23T10:12:41;95592.72;;;20.90;59.95
70684;BME280;58263;48.146;11.440;2023-05-23T10:15:07;95608.34;;;20.84;60.02
70684;BME280;58263;48.146;11.440;2023-05-23T10:17:56;95601.69;;;20.76;59.80
70684;BME280;58263;48.146;11.440;2023-05-23T10:20:25;95599.28;;;20.89;59.71
70684;BME280;58263;48.146;11.440;2023-05-23T10:22:53;95598.53;;;20.83;59.74
70684;BME280;58263;48.146;11.440;2023-05-23T10:25:20;95597.13;;;20.86;59.56
70684;BME280;58263;48.146;11.440;2023-05-23T10:27:47;95589.88;;;20.81;59.54
70684;BME280;58263;48.146;11.440;2023-05-23T10:30:13;95592.50;;;20.86;59.83
70684;BME280;58263;48.146;11.440;2023-05-23T10:32:38;95591.22;;;20.98;59.86
70684;BME280;58263;48.146;11.440;2023-05-23T10:37:54;95583.06;;;21.67;57.59
70684;BME280;58263;48.146;11.440;2023-05-23T10:43:12;95582.19;;;21.94;55.85
70684;BME280;58263;48.146;11.440;2023-05-23T10:45:40;95577.94;;;22.39;55.06
70684;BME280;58263;48.146;11.440;2023-05-23T10:48:19;95583.31;;;23.07;52.96
70684;BME280;58263;48.146;11.440;2023-05-23T10:50:45;95574.25;;;23.78;51.48
70684;BME280;58263;48.146;11.440;2023-05-23T10:53:28;95578.03;;;24.00;50.00
70684;BME280;58263;48.146;11.440;2023-05-23T10:55:55;95576.41;;;23.99;49.24
70684;BME280;58263;48.146;11.440;2023-05-23T10:58:20;95575.47;;;25.59;46.94
70684;BME280;58263;48.146;11.440;2023-05-23T11:00:54;95582.00;;;28.02;40.65
70684;BME280;58263;48.146;11.440;2023-05-23T11:06:40;95587.69;;;28.33;40.19
70684;BME280;58263;48.146;11.440;2023-05-23T11:09:12;95570.13;;;29.91;36.50
70684;BME280;58263;48.146;11.440;2023-05-23T11:14:15;95559.41;;;32.60;32.48
70684;BME280;58263;48.146;11.440;2023-05-23T11:16:42;95556.59;;;34.40;30.05
70684;BME280;58263;48.146;11.440;2023-05-23T11:21:43;95551.66;;;34.08;29.60
70684;BME280;58263;48.146;11.440;2023-05-23T11:24:08;95555.50;;;34.55;27.74
70684;BME280;58263;48.146;11.440;2023-05-23T11:26:34;95547.59;;;34.79;28.09
70684;BME280;58263;48.146;11.440;2023-05-23T11:28:59;95545.13;;;33.33;29.02
70684;BME280;58263;48.146;11.440;2023-05-23T11:31:27;95533.81;;;33.60;29.19
70684;BME280;58263;48.146;11.440;2023-05-23T11:33:53;95535.78;;;32.74;30.37
70684;BME280;58263;48.146;11.440;2023-05-23T11:36:20;95536.63;;;32.47;30.78
70684;BME280;58263;48.146;11.440;2023-05-23T11:38:46;95535.88;;;32.81;30.99
70684;BME280;58263;48.146;11.440;2023-05-23T11:41:13;95529.38;;;34.99;28.56
70684;BME280;58263;48.146;11.440;2023-05-23T11:43:49;95536.16;;;34.10;28.33
70684;BME280;58263;48.146;11.440;2023-05-23T11:46:14;95529.84;;;35.52;27.31
70684;BME280;58263;48.146;11.440;2023-05-23T11:48:46;95529.25;;;33.38;29.47
70684;BME280;58263;48.146;11.440;2023-05-23T11:51:12;95537.75;;;31.09;32.82
70684;BME280;58263;48.146;11.440;2023-05-23T11:53:37;95533.56;;;29.65;35.33
70684;BME280;58263;48.146;11.440;2023-05-23T11:56:03;95531.88;;;29.13;36.37
70684;BME280;58263;48.146;11.440;2023-05-23T11:58:38;95525.53;;;28.52;38.04
70684;BME280;58263;48.146;11.440;2023-05-23T12:01:05;95518.47;;;28.39;38.74
70684;BME280;58263;48.146;11.440;2023-05-23T12:03:31;95514.94;;;28.98;37.44
70684;BME280;58263;48.146;11.440;2023-05-23T12:05:57;95508.16;;;28.64;37.37
70684;BME280;58263;48.146;11.440;2023-05-23T12:08:23;95515.16;;;31.57;32.92
70684;BME280;58263;48.146;11.440;2023-05-23T12:10:56;95520.91;;;33.86;29.63
70684;BME280;58263;48.146;11.440;2023-05-23T12:13:27;95518.34;;;34.29;28.49
70684;BME280;58263;48.146;11.440;2023-05-23T12:15:58;95518.56;;;34.80;28.10
70684;BME280;58263;48.146;11.440;2023-05-23T12:18:27;95514.72;;;34.14;29.11
70684;BME280;58263;48.146;11.440;2023-05-23T12:20:52;95524.03;;;32.23;31.61
70684;BME280;58263;48.146;11.440;2023-05-23T12:23:23;95518.78;;;31.11;32.70
70684;BME280;58263;48.146;11.440;2023-05-23T12:25:52;95522.75;;;30.12;34.63
70684;BME280;58263;48.146;11.440;2023-05-23T12:28:19;95522.88;;;29.16;36.59
70684;BME280;58263;48.146;11.440;2023-05-23T12:30:45;95535.72;;;28.36;38.64
70684;BME280;58263;48.146;11.440;2023-05-23T12:33:10;95536.81;;;27.53;39.53
70684;BME280;58263;48.146;11.440;2023-05-23T12:35:37;95542.47;;;31.31;34.25
70684;BME280;58263;48.146;11.440;2023-05-23T12:38:05;95531.38;;;34.11;30.09
70684;BME280;58263;48.146;11.440;2023-05-23T12:40:31;95527.91;;;33.69;30.06
70684;BME280;58263;48.146;11.440;2023-05-23T12:42:57;95528.66;;;32.76;31.33
70684;BME280;58263;48.146;11.440;2023-05-23T12:47:49;95531.91;;;33.72;29.02
70684;BME280;58263;48.146;11.440;2023-05-23T12:50:15;95531.03;;;35.51;26.97
70684;BME280;58263;48.146;11.440;2023-05-23T12:52:40;95536.13;;;37.17;24.44
70684;BME280;58263;48.146;11.440;2023-05-23T12:55:07;95538.69;;;36.86;25.31
70684;BME280;58263;48.146;11.440;2023-05-23T12:57:33;95529.81;;;35.77;25.69
70684;BME280;58263;48.146;11.440;2023-05-23T12:59:59;95535.72;;;33.49;28.78
70684;BME280;58263;48.146;11.440;2023-05-23T13:02:26;95535.38;;;32.72;29.63
70684;BME280;58263;48.146;11.440;2023-05-23T13:04:52;95536.25;;;31.88;30.56
70684;BME280;58263;48.146;11.440;2023-05-23T13:07:17;95533.03;;;34.23;27.89
70684;BME280;58263;48.146;11.440;2023-05-23T13:09:43;95530.34;;;32.20;31.43
70684;BME280;58263;48.146;11.440;2023-05-23T13:12:08;95536.03;;;32.99;29.55